Watertown, SD (57201)

12:22 AM CDT on March 30, 2017 (GMT -0500)
212 And 81 | | Change Station

Elev 1722 ft 44.89 °N, 97.11 °W | Updated 14 seconds ago

Light Rain
Light Rain
38.8 °F
Feels Like 39 °F
N
2.7
Wind Variable Wind from ENE

Today
High -- | Low -- °F
--% Chance of Precip.
Yesterday
High -- | Low -- °F
Precip. -- in
Pressure 30.06 in
Visibility 7.0 miles
Clouds Overcast 1100 ft
Windchill 39 °F
Dew Point 37 °F
Humidity 92%
Rainfall 0.00 in
Snow Depth Not available.
7:12 AM 7:54 PM
Waxing Crescent, 6% visible
METAR KATY 300453Z AUTO 12007KT 7SM -RA OVC011 04/02 A3002 RMK AO2 RAB47 CIG 008V015 SLP177 P0000 T00390022
Pressure 30.06 in
Visibility 7.0 miles
Clouds Overcast 1100 ft
Windchill 39 °F
Dew Point 37 °F
Humidity 92%
Rainfall 0.00 in
Snow Depth Not available.
7:12 AM 7:54 PM
Waxing Crescent, 6% visible
METAR KATY 300453Z AUTO 12007KT 7SM -RA OVC011 04/02 A3002 RMK AO2 RAB47 CIG 008V015 SLP177 P0000 T00390022

Get Severe Weather Alerts

Thanks for signing up!

Be on the lookout for a verification email in your inbox.

You'll start receiving the daily forecast at 8 AM.

×

10-Day Weather Forecast

Almanac

Astronomy

Mar. 30, 2017 Rise Set
Actual Time
Civil Twilight
Nautical Twilight
Astronomical Twilight
Moon
Length of Visible Light
Length of Day
Tomorrow will be .
, % of the Moon is Illuminated

Today's Extremes

State Highs State Lows

Community

WunderPhotos

Upload Photos

1,962,540 photos uploaded!

WunderBlog® & News

Nearby

Air Quality

  Air Quality AQ Index Pollutant
Not available.

Snow Depth

Station Depth Elevation

Earthquake Activity

City Distance Mag. Time & Date
Minimum magnitude displayed is 2.5.

Earthquake Activity

City Distance Mag. Time & Date
Minimum magnitude displayed is 2.5.

Coastal Water Temperatures

Place Temperature

Stations

Nearby Weather Stations

Station Location Temp. Windchill Dew Point Humidity Wind Precip. Elev Updated Type
                   

Watches & Warnings

There are currently no watches in effect.